sensor_id;sensor_type;location;lat;lon;timestamp;temperature;humidity
77523;SHT31;66637;-29.628;-49.938;2023-07-20T00:01:44;15.11;69.88
77523;SHT31;66637;-29.628;-49.938;2023-07-20T00:04:16;15.10;70.34
77523;SHT31;66637;-29.628;-49.938;2023-07-20T00:06:47;15.15;71.23
77523;SHT31;66637;-29.628;-49.938;2023-07-20T00:09:19;15.15;71.45
77523;SHT31;66637;-29.628;-49.938;2023-07-20T00:11:52;15.17;70.28
77523;SHT31;66637;-29.628;-49.938;2023-07-20T00:14:23;15.17;70.51
77523;SHT31;66637;-29.628;-49.938;2023-07-20T00:16:57;15.15;70.41
77523;SHT31;66637;-29.628;-49.938;2023-07-20T00:19:30;15.14;70.30
77523;SHT31;66637;-29.628;-49.938;2023-07-20T00:22:09;15.11;70.04
77523;SHT31;66637;-29.628;-49.938;2023-07-20T00:24:44;15.12;70.80
77523;SHT31;66637;-29.628;-49.938;2023-07-20T00:27:20;15.11;71.36
77523;SHT31;66637;-29.628;-49.938;2023-07-20T00:29:56;15.08;71.24
77523;SHT31;66637;-29.628;-49.938;2023-07-20T00:32:27;15.10;71.04
77523;SHT31;66637;-29.628;-49.938;2023-07-20T00:35:03;15.10;70.61
77523;SHT31;66637;-29.628;-49.938;2023-07-20T00:37:39;15.10;70.38
77523;SHT31;66637;-29.628;-49.938;2023-07-20T00:40:13;15.15;71.46
77523;SHT31;66637;-29.628;-49.938;2023-07-20T00:42:43;15.12;71.82
77523;SHT31;66637;-29.628;-49.938;2023-07-20T00:45:27;15.10;71.71
77523;SHT31;66637;-29.628;-49.938;2023-07-20T00:47:58;15.08;71.62
77523;SHT31;66637;-29.628;-49.938;2023-07-20T00:50:37;15.10;72.02
77523;SHT31;66637;-29.628;-49.938;2023-07-20T00:53:17;15.12;72.54
77523;SHT31;66637;-29.628;-49.938;2023-07-20T00:56:14;15.15;72.72
77523;SHT31;66637;-29.628;-49.938;2023-07-20T07:23:35;14.98;76.87
77523;SHT31;66637;-29.628;-49.938;2023-07-20T07:26:37;15.01;76.72
77523;SHT31;66637;-29.628;-49.938;2023-07-20T07:29:09;15.04;76.66
77523;SHT31;66637;-29.628;-49.938;2023-07-20T07:31:41;15.03;76.77
77523;SHT31;66637;-29.628;-49.938;2023-07-20T07:34:12;15.05;77.02
77523;SHT31;66637;-29.628;-49.938;2023-07-20T07:36:44;15.05;77.27
77523;SHT31;66637;-29.628;-49.938;2023-07-20T07:39:15;15.04;77.98
77523;SHT31;66637;-29.628;-49.938;2023-07-20T07:41:48;15.07;78.17
77523;SHT31;66637;-29.628;-49.938;2023-07-20T07:44:18;15.10;78.33
77523;SHT31;66637;-29.628;-49.938;2023-07-20T07:46:49;15.08;78.30
77523;SHT31;66637;-29.628;-49.938;2023-07-20T07:49:20;15.10;78.50
77523;SHT31;66637;-29.628;-49.938;2023-07-20T07:51:50;15.12;78.57
77523;SHT31;66637;-29.628;-49.938;2023-07-20T07:54:22;15.11;79.01
77523;SHT31;66637;-29.628;-49.938;2023-07-20T07:56:52;15.15;79.25
77523;SHT31;66637;-29.628;-49.938;2023-07-20T07:59:22;15.11;79.42
77523;SHT31;66637;-29.628;-49.938;2023-07-20T08:01:53;15.11;79.42
77523;SHT31;66637;-29.628;-49.938;2023-07-20T08:04:24;15.10;79.58
77523;SHT31;66637;-29.628;-49.938;2023-07-20T08:06:55;15.07;79.65
77523;SHT31;66637;-29.628;-49.938;2023-07-20T08:09:25;15.00;79.79
77523;SHT31;66637;-29.628;-49.938;2023-07-20T08:11:55;15.04;79.99
77523;SHT31;66637;-29.628;-49.938;2023-07-20T08:14:26;14.98;79.95
77523;SHT31;66637;-29.628;-49.938;2023-07-20T08:16:57;14.94;80.09
77523;SHT31;66637;-29.628;-49.938;2023-07-20T08:19:29;14.93;80.17
77523;SHT31;66637;-29.628;-49.938;2023-07-20T08:22:00;14.98;80.46
77523;SHT31;66637;-29.628;-49.938;2023-07-20T08:24:31;14.98;80.23
77523;SHT31;66637;-29.628;-49.938;2023-07-20T08:27:02;15.00;79.85
77523;SHT31;66637;-29.628;-49.938;2023-07-20T08:29:32;15.01;79.99
77523;SHT31;66637;-29.628;-49.938;2023-07-20T08:32:03;15.00;79.94
77523;SHT31;66637;-29.628;-49.938;2023-07-20T08:34:34;15.00;79.86
77523;SHT31;66637;-29.628;-49.938;2023-07-20T08:37:04;14.95;79.49
77523;SHT31;66637;-29.628;-49.938;2023-07-20T08:39:35;14.98;79.45
77523;SHT31;66637;-29.628;-49.938;2023-07-20T08:42:08;14.98;79.27
77523;SHT31;66637;-29.628;-49.938;2023-07-20T08:44:42;15.01;78.54
77523;SHT31;66637;-29.628;-49.938;2023-07-20T08:47:16;15.01;78.17
77523;SHT31;66637;-29.628;-49.938;2023-07-20T08:49:48;15.03;77.82
77523;SHT31;66637;-29.628;-49.938;2023-07-20T08:52:19;15.07;77.65
77523;SHT31;66637;-29.628;-49.938;2023-07-20T08:54:52;15.07;77.63
77523;SHT31;66637;-29.628;-49.938;2023-07-20T08:57:25;15.08;77.63
77523;SHT31;66637;-29.628;-49.938;2023-07-20T08:59:58;15.12;77.65
77523;SHT31;66637;-29.628;-49.938;2023-07-20T09:02:35;15.12;77.62
77523;SHT31;66637;-29.628;-49.938;2023-07-20T09:05:08;15.11;77.47
77523;SHT31;66637;-29.628;-49.938;2023-07-20T09:07:40;15.11;77.61
77523;SHT31;66637;-29.628;-49.938;2023-07-20T09:10:12;15.11;77.59
77523;SHT31;66637;-29.628;-49.938;2023-07-20T09:12:43;15.18;77.61
77523;SHT31;66637;-29.628;-49.938;2023-07-20T09:15:15;15.17;77.68
77523;SHT31;66637;-29.628;-49.938;2023-07-20T09:17:50;15.18;77.55
77523;SHT31;66637;-29.628;-49.938;2023-07-20T09:20:21;15.23;77.73
77523;SHT31;66637;-29.628;-49.938;2023-07-20T09:22:52;15.21;77.90
77523;SHT31;66637;-29.628;-49.938;2023-07-20T09:25:27;15.23;77.95
77523;SHT31;66637;-29.628;-49.938;2023-07-20T09:28:02;15.21;78.06
77523;SHT31;66637;-29.628;-49.938;2023-07-20T09:30:34;15.24;77.54
77523;SHT31;66637;-29.628;-49.938;2023-07-20T09:33:18;15.18;78.14
77523;SHT31;66637;-29.628;-49.938;2023-07-20T09:35:54;15.17;78.41
77523;SHT31;66637;-29.628;-49.938;2023-07-20T09:38:46;15.14;78.61
77523;SHT31;66637;-29.628;-49.938;2023-07-20T09:41:21;15.14;78.78
77523;SHT31;66637;-29.628;-49.938;2023-07-20T09:44:00;15.10;78.99
77523;SHT31;66637;-29.628;-49.938;2023-07-20T09:46:53;15.10;79.16
77523;SHT31;66637;-29.628;-49.938;2023-07-20T09:49:27;15.10;79.20
77523;SHT31;66637;-29.628;-49.938;2023-07-20T09:52:18;15.10;79.10
77523;SHT31;66637;-29.628;-49.938;2023-07-20T09:54:54;15.10;79.08
77523;SHT31;66637;-29.628;-49.938;2023-07-20T09:57:26;15.08;79.25
77523;SHT31;66637;-29.628;-49.938;2023-07-20T09:59:57;15.08;79.16
77523;SHT31;66637;-29.628;-49.938;2023-07-20T10:02:37;15.10;79.20
77523;SHT31;66637;-29.628;-49.938;2023-07-20T10:05:15;15.08;79.15
77523;SHT31;66637;-29.628;-49.938;2023-07-20T10:07:49;15.07;79.12
77523;SHT31;66637;-29.628;-49.938;2023-07-20T10:10:42;15.03;79.04
77523;SHT31;66637;-29.628;-49.938;2023-07-20T10:13:18;15.05;79.16
77523;SHT31;66637;-29.628;-49.938;2023-07-20T10:16:04;15.05;79.09
77523;SHT31;66637;-29.628;-49.938;2023-07-20T10:18:50;15.11;79.02
77523;SHT31;66637;-29.628;-49.938;2023-07-20T10:21:21;15.10;78.96
77523;SHT31;66637;-29.628;-49.938;2023-07-20T10:23:57;15.12;78.92
77523;SHT31;66637;-29.628;-49.938;2023-07-20T10:26:29;15.12;78.87
77523;SHT31;66637;-29.628;-49.938;2023-07-20T10:29:04;15.12;78.90
77523;SHT31;66637;-29.628;-49.938;2023-07-20T10:31:37;15.15;78.98
77523;SHT31;66637;-29.628;-49.938;2023-07-20T10:34:10;15.17;78.91
77523;SHT31;66637;-29.628;-49.938;2023-07-20T10:36:46;15.21;78.89
77523;SHT31;66637;-29.628;-49.938;2023-07-20T10:39:24;15.24;78.86
77523;SHT31;66637;-29.628;-49.938;2023-07-20T10:42:07;15.35;78.61
77523;SHT31;66637;-29.628;-49.938;2023-07-20T10:44:40;15.41;78.38
77523;SHT31;66637;-29.628;-49.938;2023-07-20T10:47:13;15.44;78.36
77523;SHT31;66637;-29.628;-49.938;2023-07-20T10:50:00;15.52;78.23
77523;SHT31;66637;-29.628;-49.938;2023-07-20T10:52:40;15.63;78.04
77523;SHT31;66637;-29.628;-49.938;2023-07-20T10:55:15;16.91;74.40
77523;SHT31;66637;-29.628;-49.938;2023-07-20T10:58:09;16.34;75.54
77523;SHT31;66637;-29.628;-49.938;2023-07-20T11:01:03;16.09;76.33
77523;SHT31;66637;-29.628;-49.938;2023-07-20T11:03:36;16.00;76.61
77523;SHT31;66637;-29.628;-49.938;2023-07-20T11:09:06;15.96;76.93
77523;SHT31;66637;-29.628;-49.938;2023-07-20T11:11:48;16.12;76.58
77523;SHT31;66637;-29.628;-49.938;2023-07-20T11:14:26;16.27;76.45
77523;SHT31;66637;-29.628;-49.938;2023-07-20T11:17:11;16.39;75.92
77523;SHT31;66637;-29.628;-49.938;2023-07-20T11:19:43;16.20;76.42
77523;SHT31;66637;-29.628;-49.938;2023-07-20T11:22:20;16.09;76.67
77523;SHT31;66637;-29.628;-49.938;2023-07-20T11:24:55;16.31;76.31
77523;SHT31;66637;-29.628;-49.938;2023-07-20T11:27:27;16.46;75.60
77523;SHT31;66637;-29.628;-49.938;2023-07-20T11:29:57;16.94;74.35
77523;SHT31;66637;-29.628;-49.938;2023-07-20T11:32:29;17.79;72.77
77523;SHT31;66637;-29.628;-49.938;2023-07-20T11:34:59;17.69;72.91
77523;SHT31;66637;-29.628;-49.938;2023-07-20T11:37:29;17.72;72.40
77523;SHT31;66637;-29.628;-49.938;2023-07-20T11:40:01;17.86;72.21
77523;SHT31;66637;-29.628;-49.938;2023-07-20T11:42:34;18.03;71.62
77523;SHT31;66637;-29.628;-49.938;2023-07-20T11:45:07;17.90;71.59
77523;SHT31;66637;-29.628;-49.938;2023-07-20T11:47:42;18.00;71.62
77523;SHT31;66637;-29.628;-49.938;2023-07-20T11:50:13;17.98;71.42
77523;SHT31;66637;-29.628;-49.938;2023-07-20T11:52:44;18.13;71.36
77523;SHT31;66637;-29.628;-49.938;2023-07-20T11:55:16;18.14;71.20
77523;SHT31;66637;-29.628;-49.938;2023-07-20T11:58:07;18.36;71.36
77523;SHT31;66637;-29.628;-49.938;2023-07-20T12:00:39;18.41;70.90
77523;SHT31;66637;-29.628;-49.938;2023-07-20T12:03:10;18.52;70.67
77523;SHT31;66637;-29.628;-49.938;2023-07-20T12:05:42;18.62;70.83
77523;SHT31;66637;-29.628;-49.938;2023-07-20T12:08:28;18.69;70.26
77523;SHT31;66637;-29.628;-49.938;2023-07-20T12:11:00;18.64;70.44
77523;SHT31;66637;-29.628;-49.938;2023-07-20T12:13:44;18.79;70.33
77523;SHT31;66637;-29.628;-49.938;2023-07-20T12:16:16;18.98;69.48
77523;SHT31;66637;-29.628;-49.938;2023-07-20T12:18:47;19.03;69.40
77523;SHT31;66637;-29.628;-49.938;2023-07-20T12:21:21;19.09;68.81
77523;SHT31;66637;-29.628;-49.938;2023-07-20T12:24:07;19.13;68.78
77523;SHT31;66637;-29.628;-49.938;2023-07-20T12:26:44;19.32;68.73
77523;SHT31;66637;-29.628;-49.938;2023-07-20T12:29:16;19.49;68.08
77523;SHT31;66637;-29.628;-49.938;2023-07-20T12:31:47;19.56;67.87
77523;SHT31;66637;-29.628;-49.938;2023-07-20T12:34:19;19.56;67.95
77523;SHT31;66637;-29.628;-49.938;2023-07-20T12:36:51;19.62;67.61
77523;SHT31;66637;-29.628;-49.938;2023-07-20T12:39:21;19.62;67.73
77523;SHT31;66637;-29.628;-49.938;2023-07-20T12:41:54;19.71;67.47
77523;SHT31;66637;-29.628;-49.938;2023-07-20T12:44:25;19.83;67.32
77523;SHT31;66637;-29.628;-49.938;2023-07-20T12:46:57;20.14;67.43
77523;SHT31;66637;-29.628;-49.938;2023-07-20T12:49:28;20.22;67.26
77523;SHT31;66637;-29.628;-49.938;2023-07-20T12:51:59;20.20;67.90
77523;SHT31;66637;-29.628;-49.938;2023-07-20T12:54:32;20.04;67.73
77523;SHT31;66637;-29.628;-49.938;2023-07-20T12:57:03;20.04;67.97
77523;SHT31;66637;-29.628;-49.938;2023-07-20T12:59:37;20.13;68.57
77523;SHT31;66637;-29.628;-49.938;2023-07-20T13:02:08;19.95;68.26
77523;SHT31;66637;-29.628;-49.938;2023-07-20T13:04:39;19.53;69.77
77523;SHT31;66637;-29.628;-49.938;2023-07-20T13:07:18;19.54;69.59
77523;SHT31;66637;-29.628;-49.938;2023-07-20T13:10:04;19.34;70.15
77523;SHT31;66637;-29.628;-49.938;2023-07-20T13:12:35;19.22;70.43
77523;SHT31;66637;-29.628;-49.938;2023-07-20T13:15:09;19.37;70.28
77523;SHT31;66637;-29.628;-49.938;2023-07-20T13:17:40;19.30;70.07
77523;SHT31;66637;-29.628;-49.938;2023-07-20T13:20:11;19.60;69.54
77523;SHT31;66637;-29.628;-49.938;2023-07-20T13:22:43;19.75;69.34
77523;SHT31;66637;-29.628;-49.938;2023-07-20T13:25:15;19.87;69.13
77523;SHT31;66637;-29.628;-49.938;2023-07-20T13:27:51;20.17;68.37
77523;SHT31;66637;-29.628;-49.938;2023-07-20T13:30:23;20.13;67.50
77523;SHT31;66637;-29.628;-49.938;2023-07-20T13:32:56;20.24;67.79
77523;SHT31;66637;-29.628;-49.938;2023-07-20T13:35:34;20.01;67.93
77523;SHT31;66637;-29.628;-49.938;2023-07-20T13:38:07;20.08;67.75
77523;SHT31;66637;-29.628;-49.938;2023-07-20T13:40:40;20.39;68.06
77523;SHT31;66637;-29.628;-49.938;2023-07-20T13:43:12;20.38;67.43
77523;SHT31;66637;-29.628;-49.938;2023-07-20T13:45:42;20.04;68.69
77523;SHT31;66637;-29.628;-49.938;2023-07-20T13:48:13;20.15;67.97
77523;SHT31;66637;-29.628;-49.938;2023-07-20T13:50:48;20.11;68.44
77523;SHT31;66637;-29.628;-49.938;2023-07-20T13:53:28;19.77;69.67
77523;SHT31;66637;-29.628;-49.938;2023-07-20T13:56:06;19.91;69.90
77523;SHT31;66637;-29.628;-49.938;2023-07-20T13:58:43;20.01;68.19
77523;SHT31;66637;-29.628;-49.938;2023-07-20T14:01:14;19.94;68.37
77523;SHT31;66637;-29.628;-49.938;2023-07-20T14:03:57;19.87;68.53
77523;SHT31;66637;-29.628;-49.938;2023-07-20T14:06:32;20.00;68.93
77523;SHT31;66637;-29.628;-49.938;2023-07-20T14:09:04;19.81;70.75
77523;SHT31;66637;-29.628;-49.938;2023-07-20T14:11:36;19.69;71.48
77523;SHT31;66637;-29.628;-49.938;2023-07-20T14:14:10;19.52;71.99
77523;SHT31;66637;-29.628;-49.938;2023-07-20T14:17:17;19.27;72.51
77523;SHT31;66637;-29.628;-49.938;2023-07-20T14:19:48;19.16;72.63
77523;SHT31;66637;-29.628;-49.938;2023-07-20T14:22:19;19.22;72.99
77523;SHT31;66637;-29.628;-49.938;2023-07-20T14:24:50;19.42;72.49
77523;SHT31;66637;-29.628;-49.938;2023-07-20T14:27:23;19.71;71.85
77523;SHT31;66637;-29.628;-49.938;2023-07-20T14:29:55;19.60;72.18
77523;SHT31;66637;-29.628;-49.938;2023-07-20T14:32:27;19.42;72.78
77523;SHT31;66637;-29.628;-49.938;2023-07-20T14:34:58;19.52;73.05
77523;SHT31;66637;-29.628;-49.938;2023-07-20T14:37:43;19.66;72.73
77523;SHT31;66637;-29.628;-49.938;2023-07-20T14:40:17;19.49;73.15
77523;SHT31;66637;-29.628;-49.938;2023-07-20T14:42:51;19.43;73.38
77523;SHT31;66637;-29.628;-49.938;2023-07-20T14:45:22;19.45;73.37
77523;SHT31;66637;-29.628;-49.938;2023-07-20T14:47:54;19.27;73.77
77523;SHT31;66637;-29.628;-49.938;2023-07-20T14:50:30;19.15;73.93
77523;SHT31;66637;-29.628;-49.938;2023-07-20T14:53:00;19.02;74.34
77523;SHT31;66637;-29.628;-49.938;2023-07-20T14:55:34;19.03;74.57
77523;SHT31;66637;-29.628;-49.938;2023-07-20T14:58:05;18.98;74.69
77523;SHT31;66637;-29.628;-49.938;2023-07-20T15:00:38;19.00;74.58
77523;SHT31;66637;-29.628;-49.938;2023-07-20T15:03:09;19.22;74.25
77523;SHT31;66637;-29.628;-49.938;2023-07-20T15:05:40;19.15;74.06
77523;SHT31;66637;-29.628;-49.938;2023-07-20T15:08:13;19.32;73.95
77523;SHT31;66637;-29.628;-49.938;2023-07-20T15:10:43;19.37;73.92
77523;SHT31;66637;-29.628;-49.938;2023-07-20T15:13:16;19.50;73.76
77523;SHT31;66637;-29.628;-49.938;2023-07-20T15:15:48;19.64;73.81
77523;SHT31;66637;-29.628;-49.938;2023-07-20T15:18:19;19.70;73.36
77523;SHT31;66637;-29.628;-49.938;2023-07-20T15:21:09;19.73;73.43
77523;SHT31;66637;-29.628;-49.938;2023-07-20T15:23:39;19.74;73.34
77523;SHT31;66637;-29.628;-49.938;2023-07-20T15:26:19;19.85;73.29
77523;SHT31;66637;-29.628;-49.938;2023-07-20T15:28:52;19.93;73.41
77523;SHT31;66637;-29.628;-49.938;2023-07-20T15:31:32;19.64;73.72
77523;SHT31;66637;-29.628;-49.938;2023-07-20T15:34:06;19.54;74.08
77523;SHT31;66637;-29.628;-49.938;2023-07-20T15:36:37;19.50;74.21
77523;SHT31;66637;-29.628;-49.938;2023-07-20T15:39:10;19.49;74.51
77523;SHT31;66637;-29.628;-49.938;2023-07-20T15:41:41;19.42;74.72
77523;SHT31;66637;-29.628;-49.938;2023-07-20T15:44:12;19.43;74.66
77523;SHT31;66637;-29.628;-49.938;2023-07-20T15:46:46;20.04;73.35
77523;SHT31;66637;-29.628;-49.938;2023-07-20T15:49:37;19.85;73.81
77523;SHT31;66637;-29.628;-49.938;2023-07-20T15:52:14;19.81;73.62
77523;SHT31;66637;-29.628;-49.938;2023-07-20T15:54:45;19.73;74.01
77523;SHT31;66637;-29.628;-49.938;2023-07-20T15:57:18;19.97;73.84
77523;SHT31;66637;-29.628;-49.938;2023-07-20T15:59:48;20.14;73.21
77523;SHT31;66637;-29.628;-49.938;2023-07-20T16:02:20;20.24;73.32
77523;SHT31;66637;-29.628;-49.938;2023-07-20T16:04:52;20.59;72.46
77523;SHT31;66637;-29.628;-49.938;2023-07-20T16:07:23;20.35;72.81
77523;SHT31;66637;-29.628;-49.938;2023-07-20T16:10:00;20.39;72.84
77523;SHT31;66637;-29.628;-49.938;2023-07-20T16:12:32;20.49;72.69
77523;SHT31;66637;-29.628;-49.938;2023-07-20T16:15:06;20.34;73.31
77523;SHT31;66637;-29.628;-49.938;2023-07-20T16:18:03;20.17;73.79
77523;SHT31;66637;-29.628;-49.938;2023-07-20T16:20:35;20.22;73.50
77523;SHT31;66637;-29.628;-49.938;2023-07-20T16:23:07;20.13;74.07
77523;SHT31;66637;-29.628;-49.938;2023-07-20T16:25:39;19.80;74.87
77523;SHT31;66637;-29.628;-49.938;2023-07-20T16:28:10;19.60;75.65
77523;SHT31;66637;-29.628;-49.938;2023-07-20T16:30:41;19.54;75.91
77523;SHT31;66637;-29.628;-49.938;2023-07-20T16:33:14;19.59;75.84
77523;SHT31;66637;-29.628;-49.938;2023-07-20T16:35:46;19.47;76.01
77523;SHT31;66637;-29.628;-49.938;2023-07-20T16:38:18;19.47;76.12
77523;SHT31;66637;-29.628;-49.938;2023-07-20T16:40:49;19.64;75.81
77523;SHT31;66637;-29.628;-49.938;2023-07-20T16:43:24;20.01;74.85
77523;SHT31;66637;-29.628;-49.938;2023-07-20T16:46:04;19.94;75.14
77523;SHT31;66637;-29.628;-49.938;2023-07-20T16:48:39;19.94;75.27
77523;SHT31;66637;-29.628;-49.938;2023-07-20T16:51:28;19.78;75.61
77523;SHT31;66637;-29.628;-49.938;2023-07-20T16:54:06;20.10;74.91
77523;SHT31;66637;-29.628;-49.938;2023-07-20T16:56:45;19.88;75.20
77523;SHT31;66637;-29.628;-49.938;2023-07-20T16:59:16;20.01;75.03
77523;SHT31;66637;-29.628;-49.938;2023-07-20T17:01:47;20.28;74.56
77523;SHT31;66637;-29.628;-49.938;2023-07-20T17:04:18;20.52;73.91
77523;SHT31;66637;-29.628;-49.938;2023-07-20T17:06:49;20.26;74.41
77523;SHT31;66637;-29.628;-49.938;2023-07-20T17:09:19;20.03;74.72
77523;SHT31;66637;-29.628;-49.938;2023-07-20T17:11:51;20.07;74.87
77523;SHT31;66637;-29.628;-49.938;2023-07-20T17:14:22;19.97;75.01
77523;SHT31;66637;-29.628;-49.938;2023-07-20T17:16:54;20.10;75.00
77523;SHT31;66637;-29.628;-49.938;2023-07-20T17:19:25;20.13;74.81
77523;SHT31;66637;-29.628;-49.938;2023-07-20T17:22:01;20.39;74.33
77523;SHT31;66637;-29.628;-49.938;2023-07-20T17:24:33;20.34;74.21
77523;SHT31;66637;-29.628;-49.938;2023-07-20T17:27:07;20.26;74.58
77523;SHT31;66637;-29.628;-49.938;2023-07-20T17:29:42;19.90;75.48
77523;SHT31;66637;-29.628;-49.938;2023-07-20T17:32:14;19.64;75.77
77523;SHT31;66637;-29.628;-49.938;2023-07-20T17:34:45;19.43;76.50
77523;SHT31;66637;-29.628;-49.938;2023-07-20T17:37:15;19.47;76.56
77523;SHT31;66637;-29.628;-49.938;2023-07-20T17:39:51;19.64;76.16
77523;SHT31;66637;-29.628;-49.938;2023-07-20T17:42:27;19.60;76.14
77523;SHT31;66637;-29.628;-49.938;2023-07-20T17:45:00;19.80;75.53
77523;SHT31;66637;-29.628;-49.938;2023-07-20T17:47:32;19.56;76.30
77523;SHT31;66637;-29.628;-49.938;2023-07-20T17:50:07;19.50;76.37
77523;SHT31;66637;-29.628;-49.938;2023-07-20T17:53:03;19.45;76.57
77523;SHT31;66637;-29.628;-49.938;2023-07-20T17:55:34;19.53;76.29
77523;SHT31;66637;-29.628;-49.938;2023-07-20T17:58:04;19.34;76.82
77523;SHT31;66637;-29.628;-49.938;2023-07-20T18:00:36;19.20;77.07
77523;SHT31;66637;-29.628;-49.938;2023-07-20T18:03:08;19.10;77.58
77523;SHT31;66637;-29.628;-49.938;2023-07-20T18:05:41;19.03;77.54
77523;SHT31;66637;-29.628;-49.938;2023-07-20T18:08:12;18.95;77.85
77523;SHT31;66637;-29.628;-49.938;2023-07-20T18:10:43;18.98;77.77
77523;SHT31;66637;-29.628;-49.938;2023-07-20T18:13:16;18.82;78.17
77523;SHT31;66637;-29.628;-49.938;2023-07-20T18:15:54;18.73;78.56
77523;SHT31;66637;-29.628;-49.938;2023-07-20T18:18:24;18.64;78.76
77523;SHT31;66637;-29.628;-49.938;2023-07-20T18:20:58;18.61;78.87
77523;SHT31;66637;-29.628;-49.938;2023-07-20T18:23:30;18.61;78.90
77523;SHT31;66637;-29.628;-49.938;2023-07-20T18:26:00;18.57;79.10
77523;SHT31;66637;-29.628;-49.938;2023-07-20T18:28:32;18.54;79.28
77523;SHT31;66637;-29.628;-49.938;2023-07-20T18:31:05;18.52;79.24
77523;SHT31;66637;-29.628;-49.938;2023-07-20T18:33:38;18.43;79.56
77523;SHT31;66637;-29.628;-49.938;2023-07-20T18:36:09;18.41;79.63
77523;SHT31;66637;-29.628;-49.938;2023-07-20T18:38:40;18.37;79.77
77523;SHT31;66637;-29.628;-49.938;2023-07-20T18:41:12;18.40;79.81
77523;SHT31;66637;-29.628;-49.938;2023-07-20T18:43:44;18.37;79.77
77523;SHT31;66637;-29.628;-49.938;2023-07-20T18:46:17;18.36;79.91
77523;SHT31;66637;-29.628;-49.938;2023-07-20T18:48:48;18.30;80.04
77523;SHT31;66637;-29.628;-49.938;2023-07-20T18:51:19;18.30;80.14
77523;SHT31;66637;-29.628;-49.938;2023-07-20T18:53:50;18.27;80.23
77523;SHT31;66637;-29.628;-49.938;2023-07-20T18:56:23;18.24;80.40
77523;SHT31;66637;-29.628;-49.938;2023-07-20T18:58:55;18.24;80.48
77523;SHT31;66637;-29.628;-49.938;2023-07-20T19:01:27;18.17;80.50
77523;SHT31;66637;-29.628;-49.938;2023-07-20T19:03:59;18.17;80.62
77523;SHT31;66637;-29.628;-49.938;2023-07-20T19:06:30;18.17;80.74
77523;SHT31;66637;-29.628;-49.938;2023-07-20T19:09:01;18.14;80.74
77523;SHT31;66637;-29.628;-49.938;2023-07-20T19:11:33;18.18;80.73
77523;SHT31;66637;-29.628;-49.938;2023-07-20T19:14:12;18.24;80.55
77523;SHT31;66637;-29.628;-49.938;2023-07-20T19:16:43;18.21;80.50
77523;SHT31;66637;-29.628;-49.938;2023-07-20T19:19:25;18.21;80.66
77523;SHT31;66637;-29.628;-49.938;2023-07-20T19:21:58;18.21;80.64
77523;SHT31;66637;-29.628;-49.938;2023-07-20T19:24:30;18.20;80.71
77523;SHT31;66637;-29.628;-49.938;2023-07-20T19:27:04;18.17;80.75
77523;SHT31;66637;-29.628;-49.938;2023-07-20T19:29:37;18.18;80.71
77523;SHT31;66637;-29.628;-49.938;2023-07-20T19:32:08;18.17;80.71
77523;SHT31;66637;-29.628;-49.938;2023-07-20T19:34:40;18.16;80.82
77523;SHT31;66637;-29.628;-49.938;2023-07-20T19:37:12;18.17;80.88
77523;SHT31;66637;-29.628;-49.938;2023-07-20T19:39:43;18.21;80.68
77523;SHT31;66637;-29.628;-49.938;2023-07-20T19:42:14;18.20;80.72
77523;SHT31;66637;-29.628;-49.938;2023-07-20T19:44:44;18.14;80.71
77523;SHT31;66637;-29.628;-49.938;2023-07-20T19:47:18;18.14;80.82
77523;SHT31;66637;-29.628;-49.938;2023-07-20T19:49:49;18.07;81.03
77523;SHT31;66637;-29.628;-49.938;2023-07-20T19:52:20;18.03;81.12
77523;SHT31;66637;-29.628;-49.938;2023-07-20T19:54:57;18.00;81.19
77523;SHT31;66637;-29.628;-49.938;2023-07-20T19:57:29;17.97;81.33
77523;SHT31;66637;-29.628;-49.938;2023-07-20T20:00:05;17.97;81.37
77523;SHT31;66637;-29.628;-49.938;2023-07-20T20:02:41;17.97;81.44
77523;SHT31;66637;-29.628;-49.938;2023-07-20T20:05:14;17.96;81.55
77523;SHT31;66637;-29.628;-49.938;2023-07-20T20:07:44;17.91;81.56
77523;SHT31;66637;-29.628;-49.938;2023-07-20T20:10:17;17.86;81.79
77523;SHT31;66637;-29.628;-49.938;2023-07-20T20:12:47;17.87;81.77
77523;SHT31;66637;-29.628;-49.938;2023-07-20T20:15:19;17.83;81.98
77523;SHT31;66637;-29.628;-49.938;2023-07-20T20:17:51;17.80;82.04
77523;SHT31;66637;-29.628;-49.938;2023-07-20T20:20:31;17.82;82.24
77523;SHT31;66637;-29.628;-49.938;2023-07-20T20:23:20;17.79;82.21
77523;SHT31;66637;-29.628;-49.938;2023-07-20T20:25:54;17.72;82.23
77523;SHT31;66637;-29.628;-49.938;2023-07-20T20:28:27;17.70;82.44
77523;SHT31;66637;-29.628;-49.938;2023-07-20T20:31:00;17.69;82.45
77523;SHT31;66637;-29.628;-49.938;2023-07-20T20:33:32;17.69;82.37
77523;SHT31;66637;-29.628;-49.938;2023-07-20T20:36:06;17.70;82.45
77523;SHT31;66637;-29.628;-49.938;2023-07-20T20:38:38;17.70;82.51
77523;SHT31;66637;-29.628;-49.938;2023-07-20T20:41:09;17.65;82.57
77523;SHT31;66637;-29.628;-49.938;2023-07-20T20:43:40;17.65;82.70
77523;SHT31;66637;-29.628;-49.938;2023-07-20T20:46:11;17.63;82.62
77523;SHT31;66637;-29.628;-49.938;2023-07-20T20:48:43;17.63;82.64
77523;SHT31;66637;-29.628;-49.938;2023-07-20T20:51:16;17.61;82.72
77523;SHT31;66637;-29.628;-49.938;2023-07-20T20:53:54;17.61;82.79
77523;SHT31;66637;-29.628;-49.938;2023-07-20T20:56:25;17.61;82.79
77523;SHT31;66637;-29.628;-49.938;2023-07-20T20:59:04;17.59;82.84
77523;SHT31;66637;-29.628;-49.938;2023-07-20T21:01:34;17.57;82.82
77523;SHT31;66637;-29.628;-49.938;2023-07-20T21:04:05;17.59;82.89
77523;SHT31;66637;-29.628;-49.938;2023-07-20T21:06:35;17.57;82.82
77523;SHT31;66637;-29.628;-49.938;2023-07-20T21:09:06;17.61;82.87
77523;SHT31;66637;-29.628;-49.938;2023-07-20T21:11:37;17.59;82.87
77523;SHT31;66637;-29.628;-49.938;2023-07-20T21:14:08;17.59;82.90
77523;SHT31;66637;-29.628;-49.938;2023-07-20T21:16:39;17.59;82.94
77523;SHT31;66637;-29.628;-49.938;2023-07-20T21:19:10;17.56;82.94
77523;SHT31;66637;-29.628;-49.938;2023-07-20T21:21:41;17.57;82.96
77523;SHT31;66637;-29.628;-49.938;2023-07-20T21:24:12;17.55;83.03
77523;SHT31;66637;-29.628;-49.938;2023-07-20T21:26:43;17.53;83.09
77523;SHT31;66637;-29.628;-49.938;2023-07-20T21:29:14;17.53;83.16
77523;SHT31;66637;-29.628;-49.938;2023-07-20T21:31:45;17.52;83.22
77523;SHT31;66637;-29.628;-49.938;2023-07-20T21:34:16;17.50;83.25
77523;SHT31;66637;-29.628;-49.938;2023-07-20T21:36:46;17.49;83.33
77523;SHT31;66637;-29.628;-49.938;2023-07-20T21:39:18;17.46;83.40
77523;SHT31;66637;-29.628;-49.938;2023-07-20T21:41:49;17.47;83.40
77523;SHT31;66637;-29.628;-49.938;2023-07-20T21:44:19;17.45;83.48
77523;SHT31;66637;-29.628;-49.938;2023-07-20T21:46:50;17.40;83.52
77523;SHT31;66637;-29.628;-49.938;2023-07-20T21:49:22;17.43;83.70
77523;SHT31;66637;-29.628;-49.938;2023-07-20T21:51:53;17.39;83.61
77523;SHT31;66637;-29.628;-49.938;2023-07-20T21:54:24;17.38;83.71
77523;SHT31;66637;-29.628;-49.938;2023-07-20T21:56:55;17.36;83.85